Dobbins AFB, Georgia
Current Conditions -  °F | °C
As of 6:44 AM on Sunday 23 Nov 2014 (Local Time) from KMGE Reporting Station
Overcast Overcast  
Wind Chill: 42°   Ceiling: 300
Heat Index: 46°   Visibility: 9mi
Dew Point: 46°   Wind: 8mph
Humidity: 100%   Direction: 80°E
Pressure: 30.03"   Gusts: NA
Location:  33.9252°N, 84.5422°W
Report Text: KMGE 231144Z AUTO 08007KT 9SM OVC003 08/08 A3003 RMK AO2 RAE1059DZB1059E1108 $
Loading
Personal Weather Stations






























Interactive Weather Map New forecast layout! Learn more

10-Day Weather Forecast

Advertisements
Track Severe Weather on mobile